This is the latest recevied weather packets stored in our database for station/object F4BBI-13. If no packets are shown the sender has not sent any weather packets the latest 1 day(s).
| Time | Temp. | Humidity | Pressure | Rain* | Wind** | Luminosity | Snow |
|---|---|---|---|---|---|---|---|
| 1777791806 | 15° C | 46% | 952 hPa | 0 mm | - | 157 W/m² | - |
| 1777791203 | 14.44° C | 49% | 951 hPa | 0 mm | - | 87 W/m² | - |
| 1777790598 | 12.78° C | 53% | 951 hPa | 0 mm | - | 77 W/m² | - |
| 1777789993 | 12.22° C | 54% | 951 hPa | 0 mm | - | 67 W/m² | - |
| 1777789389 | 12.22° C | 55% | 951 hPa | 0 mm | - | 60 W/m² | - |
| 1777788785 | 11.67° C | 54% | 951 hPa | 0 mm | - | 54 W/m² | - |
| 1777788181 | 11.67° C | 53% | 951 hPa | 0 mm | - | 46 W/m² | - |
| 1777787576 | 10.56° C | 53% | 951 hPa | 0 mm | - | 41 W/m² | - |
| 1777786972 | 10.56° C | 55% | 951 hPa | 0 mm | - | 36 W/m² | - |
| 1777786368 | 10.56° C | 55% | 951 hPa | 0 mm | - | 25 W/m² | - |
| 1777785763 | 10° C | 55% | 951 hPa | 0 mm | - | 17 W/m² | - |
| 1777785159 | 10° C | 55% | 951 hPa | 0 mm | - | 11 W/m² | - |
| 1777784555 | 10° C | 54% | 951 hPa | 0 mm | - | 8 W/m² | - |
| 1777783951 | 10° C | 55% | 951 hPa | 0 mm | - | 7 W/m² | - |
| 1777783346 | 10° C | 55% | 951 hPa | 0 mm | - | 4 W/m² | - |
| 1777782743 | 10° C | 54% | 951 hPa | 0 mm | - | 2 W/m² | - |
| 1777782138 | 10° C | 53% | 951 hPa | 0 mm | - | 1 W/m² | - |
| 1777781533 | 10° C | 53% | 951 hPa | 0 mm | - | 0 W/m² | - |
| 1777780929 | 10° C | 53% | 951 hPa | 0 mm | - | 0 W/m² | - |
| 1777780325 | 9.44° C | 54% | 951 hPa | 0 mm | - | 0 W/m² | - |
| 1777779720 | 9.44° C | 54% | 951 hPa | 0 mm | - | 0 W/m² | - |
| 1777779116 | 10° C | 53% | 951 hPa | 0 mm | - | 0 W/m² | - |
| 1777778512 | 10° C | 53% | 951 hPa | 0 mm | - | 0 W/m² | - |
| 1777777907 | 9.44° C | 53% | 951 hPa | 0 mm | - | 0 W/m² | - |
| 1777777303 | 9.44° C | 54% | 951 hPa | 0 mm | - | 0 W/m² | - |
* Rain latest hour (hover to see other rain measurements)
** Current wind speed in m/s (hover to see current wind gust speed)